sensor_id;sensor_type;location;lat;lon;timestamp;pressure;altitude;pressure_sealevel;temperature;humidity
10712;BME280;5407;51.234;6.804;2023-10-09T00:02:24;101568.31;;;17.96;98.17
10712;BME280;5407;51.234;6.804;2023-10-09T00:04:51;101577.41;;;18.07;97.67
10712;BME280;5407;51.234;6.804;2023-10-09T00:07:18;101572.19;;;17.95;97.79
10712;BME280;5407;51.234;6.804;2023-10-09T00:09:48;101574.22;;;18.02;97.19
10712;BME280;5407;51.234;6.804;2023-10-09T00:12:18;101575.19;;;17.87;97.67
10712;BME280;5407;51.234;6.804;2023-10-09T00:14:49;101573.34;;;17.94;97.73
10712;BME280;5407;51.234;6.804;2023-10-09T00:17:16;101574.22;;;18.02;97.22
10712;BME280;5407;51.234;6.804;2023-10-09T00:19:48;101573.34;;;17.94;97.21
10712;BME280;5407;51.234;6.804;2023-10-09T00:22:17;101568.97;;;18.16;95.70
10712;BME280;5407;51.234;6.804;2023-10-09T00:24:56;101568.72;;;17.98;96.23
10712;BME280;5407;51.234;6.804;2023-10-09T00:27:40;101563.91;;;17.88;96.89
10712;BME280;5407;51.234;6.804;2023-10-09T00:30:10;101562.38;;;17.91;96.77
10712;BME280;5407;51.234;6.804;2023-10-09T00:32:41;101547.41;;;17.81;96.99
10712;BME280;5407;51.234;6.804;2023-10-09T00:35:25;101542.78;;;17.85;97.12
10712;BME280;5407;51.234;6.804;2023-10-09T00:38:12;101545.78;;;17.77;98.15
10712;BME280;5407;51.234;6.804;2023-10-09T00:40:48;101553.00;;;17.88;97.45
10712;BME280;5407;51.234;6.804;2023-10-09T00:43:31;101553.81;;;17.92;96.96
10712;BME280;5407;51.234;6.804;2023-10-09T00:46:02;101546.16;;;18.05;95.54
10712;BME280;5407;51.234;6.804;2023-10-09T00:48:34;101548.03;;;17.97;95.43
10712;BME280;5407;51.234;6.804;2023-10-09T00:51:05;101539.00;;;17.93;95.96
10712;BME280;5407;51.234;6.804;2023-10-09T00:53:43;101539.63;;;17.83;96.58
10712;BME280;5407;51.234;6.804;2023-10-09T00:56:11;101541.00;;;17.96;96.23
10712;BME280;5407;51.234;6.804;2023-10-09T00:58:46;101534.28;;;17.90;96.44
10712;BME280;5407;51.234;6.804;2023-10-09T01:01:20;101526.09;;;17.90;96.33
10712;BME280;5407;51.234;6.804;2023-10-09T01:03:52;101522.09;;;17.84;96.40
10712;BME280;5407;51.234;6.804;2023-10-09T01:06:19;101521.31;;;17.84;96.64
10712;BME280;5407;51.234;6.804;2023-10-09T01:08:47;101518.22;;;17.85;96.44
10712;BME280;5407;51.234;6.804;2023-10-09T01:11:22;101515.81;;;17.80;96.89
10712;BME280;5407;51.234;6.804;2023-10-09T01:13:56;101521.81;;;17.89;96.46
10712;BME280;5407;51.234;6.804;2023-10-09T01:16:38;101511.38;;;17.98;95.60
10712;BME280;5407;51.234;6.804;2023-10-09T01:19:06;101508.16;;;17.89;96.09
10712;BME280;5407;51.234;6.804;2023-10-09T01:21:38;101508.59;;;17.95;95.74
10712;BME280;5407;51.234;6.804;2023-10-09T01:24:07;101510.22;;;17.99;95.58
10712;BME280;5407;51.234;6.804;2023-10-09T01:26:36;101495.03;;;18.02;95.05
10712;BME280;5407;51.234;6.804;2023-10-09T01:29:10;101500.38;;;17.91;95.89
10712;BME280;5407;51.234;6.804;2023-10-09T01:31:40;101496.06;;;17.90;96.33
10712;BME280;5407;51.234;6.804;2023-10-09T01:34:16;101485.16;;;17.90;96.14
10712;BME280;5407;51.234;6.804;2023-10-09T01:36:45;101477.47;;;17.99;95.16
10712;BME280;5407;51.234;6.804;2023-10-09T01:39:16;101474.13;;;17.83;96.41
10712;BME280;5407;51.234;6.804;2023-10-09T01:41:52;101488.84;;;17.75;96.85
10712;BME280;5407;51.234;6.804;2023-10-09T01:44:27;101492.97;;;17.92;95.87
10712;BME280;5407;51.234;6.804;2023-10-09T01:46:56;101500.78;;;17.93;95.46
10712;BME280;5407;51.234;6.804;2023-10-09T01:49:24;101497.81;;;18.05;94.66
10712;BME280;5407;51.234;6.804;2023-10-09T01:51:57;101493.97;;;18.10;94.33
10712;BME280;5407;51.234;6.804;2023-10-09T01:54:36;101500.22;;;18.10;94.14
10712;BME280;5407;51.234;6.804;2023-10-09T01:57:04;101500.81;;;17.97;95.25
10712;BME280;5407;51.234;6.804;2023-10-09T01:59:38;101502.44;;;18.01;94.82
10712;BME280;5407;51.234;6.804;2023-10-09T02:02:10;101506.44;;;18.07;94.68
10712;BME280;5407;51.234;6.804;2023-10-09T02:04:58;101509.56;;;18.09;94.08
10712;BME280;5407;51.234;6.804;2023-10-09T02:07:50;101509.66;;;18.16;93.49
10712;BME280;5407;51.234;6.804;2023-10-09T02:10:20;101504.91;;;18.10;93.40
10712;BME280;5407;51.234;6.804;2023-10-09T02:13:03;101510.88;;;17.89;94.97
10712;BME280;5407;51.234;6.804;2023-10-09T02:15:34;101510.88;;;17.89;95.50
10712;BME280;5407;51.234;6.804;2023-10-09T02:18:13;101515.59;;;17.92;95.33
10712;BME280;5407;51.234;6.804;2023-10-09T02:20:52;101517.91;;;17.90;95.17
10712;BME280;5407;51.234;6.804;2023-10-09T02:23:26;101509.50;;;18.06;94.32
10712;BME280;5407;51.234;6.804;2023-10-09T02:26:06;101510.03;;;17.85;95.03
10712;BME280;5407;51.234;6.804;2023-10-09T02:28:34;101495.28;;;17.90;95.25
10712;BME280;5407;51.234;6.804;2023-10-09T02:31:10;101497.44;;;17.77;96.08
10712;BME280;5407;51.234;6.804;2023-10-09T02:33:38;101488.19;;;17.85;95.83
10712;BME280;5407;51.234;6.804;2023-10-09T02:36:06;101481.25;;;17.91;95.54
10712;BME280;5407;51.234;6.804;2023-10-09T02:38:34;101478.00;;;17.82;95.90
10712;BME280;5407;51.234;6.804;2023-10-09T02:41:03;101488.16;;;17.82;96.06
10712;BME280;5407;51.234;6.804;2023-10-09T02:43:55;101496.91;;;17.94;95.54
10712;BME280;5407;51.234;6.804;2023-10-09T02:46:24;101495.31;;;17.93;95.36
10712;BME280;5407;51.234;6.804;2023-10-09T02:48:56;101492.34;;;18.05;94.67
10712;BME280;5407;51.234;6.804;2023-10-09T02:51:25;101486.84;;;18.02;94.28
10712;BME280;5407;51.234;6.804;2023-10-09T02:54:03;101493.34;;;17.90;94.97
10712;BME280;5407;51.234;6.804;2023-10-09T02:56:52;101488.38;;;17.99;94.80
10712;BME280;5407;51.234;6.804;2023-10-09T02:59:24;101483.59;;;17.93;94.78
10712;BME280;5407;51.234;6.804;2023-10-09T03:01:51;101485.94;;;17.91;94.84
10712;BME280;5407;51.234;6.804;2023-10-09T03:04:19;101484.03;;;17.95;95.02
10712;BME280;5407;51.234;6.804;2023-10-09T03:06:49;101482.44;;;17.90;95.17
10712;BME280;5407;51.234;6.804;2023-10-09T03:09:16;101491.78;;;17.89;95.54
10712;BME280;5407;51.234;6.804;2023-10-09T03:11:44;101479.69;;;17.90;95.44
10712;BME280;5407;51.234;6.804;2023-10-09T03:14:13;101473.28;;;17.79;95.46
10712;BME280;5407;51.234;6.804;2023-10-09T03:16:42;101474.13;;;17.83;95.78
10712;BME280;5407;51.234;6.804;2023-10-09T03:19:09;101460.06;;;17.81;95.98
10712;BME280;5407;51.234;6.804;2023-10-09T03:21:39;101457.84;;;17.90;95.36
10712;BME280;5407;51.234;6.804;2023-10-09T03:24:07;101462.00;;;17.81;95.70
10712;BME280;5407;51.234;6.804;2023-10-09T03:26:34;101459.75;;;17.86;95.78
10712;BME280;5407;51.234;6.804;2023-10-09T03:29:01;101455.06;;;17.87;95.47
10712;BME280;5407;51.234;6.804;2023-10-09T03:31:32;101462.38;;;17.79;95.94
10712;BME280;5407;51.234;6.804;2023-10-09T03:34:00;101460.19;;;17.92;95.53
10712;BME280;5407;51.234;6.804;2023-10-09T03:36:28;101460.19;;;17.92;94.71
10712;BME280;5407;51.234;6.804;2023-10-09T03:38:56;101467.19;;;17.89;95.02
10712;BME280;5407;51.234;6.804;2023-10-09T03:41:23;101463.41;;;17.97;94.52
10712;BME280;5407;51.234;6.804;2023-10-09T03:43:52;101448.38;;;17.84;94.96
10712;BME280;5407;51.234;6.804;2023-10-09T03:46:19;101441.28;;;17.76;95.50
10712;BME280;5407;51.234;6.804;2023-10-09T03:48:48;101441.19;;;17.69;96.44
10712;BME280;5407;51.234;6.804;2023-10-09T03:51:16;101436.47;;;17.66;96.64
10712;BME280;5407;51.234;6.804;2023-10-09T03:53:48;101441.28;;;17.76;96.36
10712;BME280;5407;51.234;6.804;2023-10-09T03:56:15;101438.19;;;17.78;95.95
10712;BME280;5407;51.234;6.804;2023-10-09T03:58:44;101437.38;;;17.77;95.79
10712;BME280;5407;51.234;6.804;2023-10-09T04:01:12;101437.38;;;17.74;96.06
10712;BME280;5407;51.234;6.804;2023-10-09T04:03:48;101438.88;;;17.71;96.11
10712;BME280;5407;51.234;6.804;2023-10-09T04:06:16;101440.59;;;17.83;95.51
10712;BME280;5407;51.234;6.804;2023-10-09T04:08:44;101429.72;;;17.86;95.26
10712;BME280;5407;51.234;6.804;2023-10-09T04:11:15;101426.53;;;17.81;95.48
10712;BME280;5407;51.234;6.804;2023-10-09T04:13:48;101435.78;;;17.73;96.30
10712;BME280;5407;51.234;6.804;2023-10-09T04:16:17;101440.53;;;17.79;95.93
10712;BME280;5407;51.234;6.804;2023-10-09T04:19:01;101433.63;;;17.89;95.26
10712;BME280;5407;51.234;6.804;2023-10-09T04:21:37;101430.97;;;17.92;94.74
10712;BME280;5407;51.234;6.804;2023-10-09T04:24:05;101430.09;;;17.85;95.36
10712;BME280;5407;51.234;6.804;2023-10-09T04:26:51;101433.56;;;17.82;95.76
10712;BME280;5407;51.234;6.804;2023-10-09T04:29:24;101421.84;;;17.81;96.19
10712;BME280;5407;51.234;6.804;2023-10-09T04:31:54;101425.56;;;17.66;96.68
10712;BME280;5407;51.234;6.804;2023-10-09T04:34:23;101429.19;;;17.74;96.96
10712;BME280;5407;51.234;6.804;2023-10-09T04:37:01;101439.75;;;17.79;96.97
10712;BME280;5407;51.234;6.804;2023-10-09T04:39:45;101442.84;;;17.77;96.57
10712;BME280;5407;51.234;6.804;2023-10-09T04:42:26;101436.66;;;17.80;96.60
10712;BME280;5407;51.234;6.804;2023-10-09T04:45:03;101436.28;;;17.82;96.56
10712;BME280;5407;51.234;6.804;2023-10-09T04:47:46;101438.63;;;17.83;96.29
10712;BME280;5407;51.234;6.804;2023-10-09T04:50:24;101435.88;;;17.80;96.80
10712;BME280;5407;51.234;6.804;2023-10-09T04:53:15;101435.53;;;17.85;96.38
10712;BME280;5407;51.234;6.804;2023-10-09T04:55:50;101418.69;;;17.79;96.49
10712;BME280;5407;51.234;6.804;2023-10-09T04:58:29;101420.25;;;17.77;96.34
10712;BME280;5407;51.234;6.804;2023-10-09T05:00:58;101412.50;;;17.82;96.20
10712;BME280;5407;51.234;6.804;2023-10-09T05:03:41;101416.56;;;17.95;95.23
10712;BME280;5407;51.234;6.804;2023-10-09T05:06:11;101407.91;;;17.90;95.50
10712;BME280;5407;51.234;6.804;2023-10-09T05:08:50;101411.38;;;17.87;96.11
10712;BME280;5407;51.234;6.804;2023-10-09T05:11:22;101411.84;;;17.92;95.81
10712;BME280;5407;51.234;6.804;2023-10-09T05:14:19;101409.22;;;17.99;95.24
10712;BME280;5407;51.234;6.804;2023-10-09T05:16:53;101411.34;;;17.83;96.00
10712;BME280;5407;51.234;6.804;2023-10-09T05:19:26;101397.69;;;17.83;96.35
10712;BME280;5407;51.234;6.804;2023-10-09T05:22:10;101406.25;;;17.82;96.30
10712;BME280;5407;51.234;6.804;2023-10-09T05:24:57;101404.34;;;17.86;96.19
10712;BME280;5407;51.234;6.804;2023-10-09T05:27:24;101411.03;;;17.88;96.24
10712;BME280;5407;51.234;6.804;2023-10-09T05:30:06;101414.78;;;17.77;96.67
10712;BME280;5407;51.234;6.804;2023-10-09T05:32:51;101414.78;;;17.77;96.27
10712;BME280;5407;51.234;6.804;2023-10-09T05:35:21;101427.28;;;17.78;96.95
10712;BME280;5407;51.234;6.804;2023-10-09T05:37:55;101447.28;;;17.89;96.36
10712;BME280;5407;51.234;6.804;2023-10-09T05:40:28;101461.81;;;17.96;95.91
10712;BME280;5407;51.234;6.804;2023-10-09T05:42:57;101453.25;;;17.98;96.23
10712;BME280;5407;51.234;6.804;2023-10-09T05:45:25;101439.19;;;17.96;95.78
10712;BME280;5407;51.234;6.804;2023-10-09T05:48:10;101458.69;;;17.94;95.85
10712;BME280;5407;51.234;6.804;2023-10-09T05:50:54;101467.28;;;17.96;96.03
10712;BME280;5407;51.234;6.804;2023-10-09T05:53:35;101459.09;;;17.96;95.85
10712;BME280;5407;51.234;6.804;2023-10-09T05:56:37;101450.25;;;18.06;95.40
10712;BME280;5407;51.234;6.804;2023-10-09T05:59:22;101437.66;;;17.98;95.36
10712;BME280;5407;51.234;6.804;2023-10-09T06:02:06;101431.53;;;18.08;94.71
10712;BME280;5407;51.234;6.804;2023-10-09T06:04:51;101426.81;;;18.05;94.03
10712;BME280;5407;51.234;6.804;2023-10-09T06:07:21;101426.16;;;18.15;93.17
10712;BME280;5407;51.234;6.804;2023-10-09T06:10:10;101448.06;;;18.22;92.58
10712;BME280;5407;51.234;6.804;2023-10-09T06:13:00;101452.38;;;18.23;92.66
10712;BME280;5407;51.234;6.804;2023-10-09T06:15:36;101457.75;;;18.16;93.49
10712;BME280;5407;51.234;6.804;2023-10-09T06:18:26;101476.88;;;18.16;92.74
10712;BME280;5407;51.234;6.804;2023-10-09T06:20:58;101484.09;;;18.31;91.84
10712;BME280;5407;51.234;6.804;2023-10-09T06:23:48;101496.69;;;18.39;91.27
10712;BME280;5407;51.234;6.804;2023-10-09T06:26:35;101507.25;;;18.41;91.23
10712;BME280;5407;51.234;6.804;2023-10-09T06:29:04;101508.41;;;18.40;91.13
10712;BME280;5407;51.234;6.804;2023-10-09T06:31:59;101513.16;;;18.46;91.20
10712;BME280;5407;51.234;6.804;2023-10-09T06:34:43;101519.44;;;18.50;91.18
10712;BME280;5407;51.234;6.804;2023-10-09T06:37:12;101534.19;;;18.42;91.79
10712;BME280;5407;51.234;6.804;2023-10-09T06:39:55;101521.84;;;18.55;91.22
10712;BME280;5407;51.234;6.804;2023-10-09T06:43:02;101522.38;;;18.68;90.39
10712;BME280;5407;51.234;6.804;2023-10-09T06:45:36;101525.78;;;18.58;91.02
10712;BME280;5407;51.234;6.804;2023-10-09T06:48:11;101524.91;;;18.50;90.03
10712;BME280;5407;51.234;6.804;2023-10-09T06:50:51;101513.25;;;18.53;89.54
10712;BME280;5407;51.234;6.804;2023-10-09T06:53:30;101508.78;;;18.78;89.20
10712;BME280;5407;51.234;6.804;2023-10-09T06:56:10;101515.53;;;18.84;89.21
10712;BME280;5407;51.234;6.804;2023-10-09T06:58:48;101503.66;;;18.70;89.78
10712;BME280;5407;51.234;6.804;2023-10-09T07:01:16;101510.28;;;18.72;88.90
10712;BME280;5407;51.234;6.804;2023-10-09T07:04:08;101527.44;;;18.69;89.17
10712;BME280;5407;51.234;6.804;2023-10-09T07:06:44;101517.53;;;18.54;89.27
10712;BME280;5407;51.234;6.804;2023-10-09T07:09:22;101514.94;;;18.68;88.62
10712;BME280;5407;51.234;6.804;2023-10-09T07:11:49;101521.16;;;18.65;88.37
10712;BME280;5407;51.234;6.804;2023-10-09T07:14:24;101525.81;;;18.61;88.66
10712;BME280;5407;51.234;6.804;2023-10-09T07:17:10;101521.22;;;18.69;88.51
10712;BME280;5407;51.234;6.804;2023-10-09T07:19:48;101515.56;;;18.91;87.22
10712;BME280;5407;51.234;6.804;2023-10-09T07:22:32;101511.63;;;18.85;87.54
10712;BME280;5407;51.234;6.804;2023-10-09T07:25:06;101519.88;;;18.92;86.54
10712;BME280;5407;51.234;6.804;2023-10-09T07:27:53;101514.41;;;18.92;86.46
10712;BME280;5407;51.234;6.804;2023-10-09T07:30:22;101521.41;;;18.86;86.58
10712;BME280;5407;51.234;6.804;2023-10-09T07:33:07;101520.81;;;19.10;85.61
10712;BME280;5407;51.234;6.804;2023-10-09T07:35:44;101519.38;;;19.19;85.15
10712;BME280;5407;51.234;6.804;2023-10-09T07:38:18;101524.94;;;19.30;83.48
10712;BME280;5407;51.234;6.804;2023-10-09T07:40:46;101517.06;;;19.25;83.56
10712;BME280;5407;51.234;6.804;2023-10-09T07:43:26;101518.72;;;19.36;83.41
10712;BME280;5407;51.234;6.804;2023-10-09T07:45:55;101525.78;;;19.41;83.35
10712;BME280;5407;51.234;6.804;2023-10-09T07:48:40;101513.19;;;19.29;83.16
10712;BME280;5407;51.234;6.804;2023-10-09T07:51:14;101512.16;;;19.01;84.96
10712;BME280;5407;51.234;6.804;2023-10-09T07:53:42;101506.88;;;19.22;83.61
10712;BME280;5407;51.234;6.804;2023-10-09T07:56:10;101511.63;;;19.28;83.36
10712;BME280;5407;51.234;6.804;2023-10-09T07:58:40;101498.34;;;19.27;83.86
10712;BME280;5407;51.234;6.804;2023-10-09T08:01:17;101501.66;;;19.07;84.81
10712;BME280;5407;51.234;6.804;2023-10-09T08:03:52;101499.50;;;19.26;84.23
10712;BME280;5407;51.234;6.804;2023-10-09T08:06:27;101513.22;;;19.33;83.98
10712;BME280;5407;51.234;6.804;2023-10-09T08:09:05;101504.44;;;19.13;85.56
10712;BME280;5407;51.234;6.804;2023-10-09T08:12:04;101481.53;;;19.28;84.27
10712;BME280;5407;51.234;6.804;2023-10-09T08:14:41;101486.44;;;19.09;84.60
10712;BME280;5407;51.234;6.804;2023-10-09T08:17:11;101483.94;;;18.90;86.18
10712;BME280;5407;51.234;6.804;2023-10-09T08:19:46;101479.38;;;19.08;85.16
10712;BME280;5407;51.234;6.804;2023-10-09T08:22:24;101490.63;;;19.00;84.96
10712;BME280;5407;51.234;6.804;2023-10-09T08:25:10;101529.25;;;18.91;86.46
10712;BME280;5407;51.234;6.804;2023-10-09T08:27:59;101555.22;;;19.11;85.46
10712;BME280;5407;51.234;6.804;2023-10-09T08:30:40;101568.38;;;18.99;86.47
10712;BME280;5407;51.234;6.804;2023-10-09T08:33:29;101578.84;;;19.26;85.00
10712;BME280;5407;51.234;6.804;2023-10-09T08:36:10;101590.72;;;19.44;83.81
10712;BME280;5407;51.234;6.804;2023-10-09T08:38:40;101593.91;;;19.49;83.08
10712;BME280;5407;51.234;6.804;2023-10-09T08:41:09;101601.00;;;19.61;82.63
10712;BME280;5407;51.234;6.804;2023-10-09T08:43:49;101587.03;;;19.76;81.94
10712;BME280;5407;51.234;6.804;2023-10-09T08:46:21;101566.66;;;19.70;81.94
10712;BME280;5407;51.234;6.804;2023-10-09T08:48:48;101563.50;;;19.65;81.55
10712;BME280;5407;51.234;6.804;2023-10-09T08:51:18;101527.22;;;19.75;81.49
10712;BME280;5407;51.234;6.804;2023-10-09T08:53:46;101514.66;;;19.70;81.68
10712;BME280;5407;51.234;6.804;2023-10-09T08:56:13;101477.81;;;19.57;82.88
10712;BME280;5407;51.234;6.804;2023-10-09T08:58:49;101487.28;;;19.70;82.14
10712;BME280;5407;51.234;6.804;2023-10-09T09:01:17;101512.50;;;19.43;84.05
10712;BME280;5407;51.234;6.804;2023-10-09T09:03:47;101499.47;;;19.22;84.44
10712;BME280;5407;51.234;6.804;2023-10-09T09:06:18;101498.19;;;19.63;82.29
10712;BME280;5407;51.234;6.804;2023-10-09T09:08:46;101491.09;;;19.59;82.42
10712;BME280;5407;51.234;6.804;2023-10-09T09:11:14;101477.56;;;19.22;84.02
10712;BME280;5407;51.234;6.804;2023-10-09T09:13:44;101465.59;;;19.44;83.14
10712;BME280;5407;51.234;6.804;2023-10-09T09:16:16;101454.72;;;19.55;82.90
10712;BME280;5407;51.234;6.804;2023-10-09T09:18:51;101455.19;;;19.71;82.77
10712;BME280;5407;51.234;6.804;2023-10-09T09:21:24;101464.22;;;19.75;82.93
10712;BME280;5407;51.234;6.804;2023-10-09T09:23:54;101454.16;;;19.96;81.90
10712;BME280;5407;51.234;6.804;2023-10-09T09:26:33;101450.38;;;20.32;80.49
10712;BME280;5407;51.234;6.804;2023-10-09T09:29:04;101452.31;;;20.25;80.14
10712;BME280;5407;51.234;6.804;2023-10-09T09:31:33;101466.88;;;20.60;77.99
10712;BME280;5407;51.234;6.804;2023-10-09T09:34:04;101470.03;;;20.79;75.70
10712;BME280;5407;51.234;6.804;2023-10-09T09:36:50;101485.72;;;20.75;75.41
10712;BME280;5407;51.234;6.804;2023-10-09T09:39:25;101493.97;;;20.89;75.30
10712;BME280;5407;51.234;6.804;2023-10-09T09:41:56;101493.56;;;21.08;74.07
10712;BME280;5407;51.234;6.804;2023-10-09T09:44:33;101495.16;;;21.02;74.18
10712;BME280;5407;51.234;6.804;2023-10-09T09:47:09;101501.06;;;21.11;72.84
10712;BME280;5407;51.234;6.804;2023-10-09T09:49:41;101495.94;;;21.13;72.42
10712;BME280;5407;51.234;6.804;2023-10-09T09:52:10;101488.09;;;21.01;73.40
10712;BME280;5407;51.234;6.804;2023-10-09T09:54:38;101490.44;;;20.92;72.98
10712;BME280;5407;51.234;6.804;2023-10-09T09:57:07;101490.84;;;20.94;72.45
10712;BME280;5407;51.234;6.804;2023-10-09T09:59:39;101499.72;;;20.36;75.09
10712;BME280;5407;51.234;6.804;2023-10-09T10:02:21;101492.38;;;20.67;74.16
10712;BME280;5407;51.234;6.804;2023-10-09T10:04:54;101488.88;;;20.91;73.20
10712;BME280;5407;51.234;6.804;2023-10-09T10:07:24;101498.63;;;20.65;74.05
10712;BME280;5407;51.234;6.804;2023-10-09T10:09:54;101504.84;;;20.62;75.05
10712;BME280;5407;51.234;6.804;2023-10-09T10:12:50;101503.75;;;21.29;72.00
10712;BME280;5407;51.234;6.804;2023-10-09T10:16:00;101496.72;;;21.28;70.34
10712;BME280;5407;51.234;6.804;2023-10-09T10:18:31;101505.34;;;20.84;72.01
10712;BME280;5407;51.234;6.804;2023-10-09T10:21:11;101501.44;;;21.20;70.30
10712;BME280;5407;51.234;6.804;2023-10-09T10:23:43;101495.94;;;21.03;71.13
10712;BME280;5407;51.234;6.804;2023-10-09T10:26:20;101495.94;;;21.20;70.57
10712;BME280;5407;51.234;6.804;2023-10-09T10:29:17;101503.00;;;21.21;70.30
10712;BME280;5407;51.234;6.804;2023-10-09T10:31:53;101494.75;;;21.39;69.90
10712;BME280;5407;51.234;6.804;2023-10-09T10:34:22;101510.81;;;21.05;70.77
10712;BME280;5407;51.234;6.804;2023-10-09T10:36:50;101519.88;;;21.16;70.89
10712;BME280;5407;51.234;6.804;2023-10-09T10:39:26;101521.03;;;21.19;70.60
10712;BME280;5407;51.234;6.804;2023-10-09T10:42:14;101525.66;;;21.88;68.63
10712;BME280;5407;51.234;6.804;2023-10-09T10:44:59;101529.09;;;22.20;66.79
10712;BME280;5407;51.234;6.804;2023-10-09T10:47:40;101527.63;;;21.84;68.19
10712;BME280;5407;51.234;6.804;2023-10-09T10:50:08;101533.16;;;21.56;68.65
10712;BME280;5407;51.234;6.804;2023-10-09T10:53:08;101538.16;;;22.10;67.00
10712;BME280;5407;51.234;6.804;2023-10-09T10:55:57;101534.34;;;21.76;67.26
10712;BME280;5407;51.234;6.804;2023-10-09T10:58:23;101535.50;;;21.75;66.87
10712;BME280;5407;51.234;6.804;2023-10-09T11:01:00;101532.16;;;22.43;64.97
10712;BME280;5407;51.234;6.804;2023-10-09T11:03:37;101529.81;;;22.31;65.38
10712;BME280;5407;51.234;6.804;2023-10-09T11:06:30;101523.66;;;21.99;66.44
10712;BME280;5407;51.234;6.804;2023-10-09T11:09:08;101521.75;;;21.82;66.70
10712;BME280;5407;51.234;6.804;2023-10-09T11:11:48;101517.78;;;22.04;65.55
10712;BME280;5407;51.234;6.804;2023-10-09T11:14:15;101513.78;;;22.19;65.80
10712;BME280;5407;51.234;6.804;2023-10-09T11:16:43;101511.47;;;22.04;65.88
10712;BME280;5407;51.234;6.804;2023-10-09T11:19:13;101510.66;;;22.17;65.19
10712;BME280;5407;51.234;6.804;2023-10-09T11:21:55;101522.31;;;22.45;64.52
10712;BME280;5407;51.234;6.804;2023-10-09T11:24:49;101524.44;;;22.82;62.98
10712;BME280;5407;51.234;6.804;2023-10-09T11:27:40;101526.88;;;22.73;63.17
10712;BME280;5407;51.234;6.804;2023-10-09T11:30:16;101523.03;;;22.56;63.33
10712;BME280;5407;51.234;6.804;2023-10-09T11:33:04;101523.47;;;22.48;63.58
10712;BME280;5407;51.234;6.804;2023-10-09T11:35:30;101521.75;;;23.29;60.89
10712;BME280;5407;51.234;6.804;2023-10-09T11:38:00;101521.88;;;23.15;61.73
10712;BME280;5407;51.234;6.804;2023-10-09T11:40:28;101519.78;;;23.30;60.82
10712;BME280;5407;51.234;6.804;2023-10-09T11:43:15;101523.69;;;22.78;62.07
10712;BME280;5407;51.234;6.804;2023-10-09T11:45:42;101510.44;;;22.62;62.33
10712;BME280;5407;51.234;6.804;2023-10-09T11:48:20;101499.91;;;22.54;63.04
10712;BME280;5407;51.234;6.804;2023-10-09T11:50:58;101504.56;;;22.60;62.81
10712;BME280;5407;51.234;6.804;2023-10-09T11:53:52;101504.69;;;22.97;61.60
10712;BME280;5407;51.234;6.804;2023-10-09T11:56:21;101510.03;;;23.22;61.19
10712;BME280;5407;51.234;6.804;2023-10-09T11:58:52;101512.28;;;23.34;60.79
10712;BME280;5407;51.234;6.804;2023-10-09T12:01:24;101507.72;;;23.13;61.15
10712;BME280;5407;51.234;6.804;2023-10-09T12:03:52;101501.03;;;23.14;61.40
10712;BME280;5407;51.234;6.804;2023-10-09T12:06:20;101513.91;;;23.28;60.57
10712;BME280;5407;51.234;6.804;2023-10-09T12:08:48;101509.75;;;23.06;61.03
10712;BME280;5407;51.234;6.804;2023-10-09T12:11:17;101502.78;;;23.38;60.40
10712;BME280;5407;51.234;6.804;2023-10-09T12:13:48;101492.22;;;22.82;61.83
10712;BME280;5407;51.234;6.804;2023-10-09T12:16:21;101497.47;;;23.17;60.84
10712;BME280;5407;51.234;6.804;2023-10-09T12:18:53;101489.31;;;23.03;60.92
10712;BME280;5407;51.234;6.804;2023-10-09T12:21:20;101491.81;;;23.35;60.02
10712;BME280;5407;51.234;6.804;2023-10-09T12:23:48;101490.53;;;22.99;61.83
10712;BME280;5407;51.234;6.804;2023-10-09T12:26:17;101489.94;;;22.74;62.52
10712;BME280;5407;51.234;6.804;2023-10-09T12:28:44;101490.41;;;22.58;63.13
10712;BME280;5407;51.234;6.804;2023-10-09T12:31:12;101486.03;;;22.68;63.15
10712;BME280;5407;51.234;6.804;2023-10-09T12:33:40;101489.34;;;22.35;64.35
10712;BME280;5407;51.234;6.804;2023-10-09T12:36:11;101481.50;;;22.37;64.07
10712;BME280;5407;51.234;6.804;2023-10-09T12:38:43;101472.94;;;22.21;65.02
10712;BME280;5407;51.234;6.804;2023-10-09T12:41:11;101469.00;;;22.18;64.68
10712;BME280;5407;51.234;6.804;2023-10-09T12:43:46;101472.22;;;22.10;64.80
10712;BME280;5407;51.234;6.804;2023-10-09T12:46:13;101480.03;;;22.15;64.81
10712;BME280;5407;51.234;6.804;2023-10-09T12:48:42;101482.81;;;22.08;65.34
10712;BME280;5407;51.234;6.804;2023-10-09T12:51:11;101486.19;;;22.40;64.65
10712;BME280;5407;51.234;6.804;2023-10-09T12:53:42;101485.50;;;22.18;66.02
10712;BME280;5407;51.234;6.804;2023-10-09T12:56:09;101483.03;;;22.45;64.83
10712;BME280;5407;51.234;6.804;2023-10-09T12:58:37;101479.75;;;22.67;64.04
10712;BME280;5407;51.234;6.804;2023-10-09T13:01:06;101477.50;;;22.52;64.22
10712;BME280;5407;51.234;6.804;2023-10-09T13:03:37;101490.03;;;22.60;64.15
10712;BME280;5407;51.234;6.804;2023-10-09T13:06:04;101485.50;;;22.22;64.77
10712;BME280;5407;51.234;6.804;2023-10-09T13:08:36;101485.44;;;22.39;64.51
10712;BME280;5407;51.234;6.804;2023-10-09T13:11:07;101501.56;;;22.30;64.55
10712;BME280;5407;51.234;6.804;2023-10-09T13:13:36;101509.34;;;22.46;64.44
10712;BME280;5407;51.234;6.804;2023-10-09T13:16:13;101511.59;;;22.65;63.99
10712;BME280;5407;51.234;6.804;2023-10-09T13:18:46;101510.16;;;22.36;64.74
10712;BME280;5407;51.234;6.804;2023-10-09T13:21:15;101508.03;;;22.68;64.00
10712;BME280;5407;51.234;6.804;2023-10-09T13:23:42;101499.53;;;22.45;64.79
10712;BME280;5407;51.234;6.804;2023-10-09T13:26:12;101499.91;;;22.54;64.39
10712;BME280;5407;51.234;6.804;2023-10-09T13:28:50;101501.47;;;22.48;65.32
10712;BME280;5407;51.234;6.804;2023-10-09T13:31:20;101493.25;;;22.44;65.77
10712;BME280;5407;51.234;6.804;2023-10-09T13:33:51;101490.06;;;22.53;65.38
10712;BME280;5407;51.234;6.804;2023-10-09T13:36:20;101494.78;;;22.52;65.43
10712;BME280;5407;51.234;6.804;2023-10-09T13:38:57;101493.66;;;22.36;66.29
10712;BME280;5407;51.234;6.804;2023-10-09T13:41:27;101488.53;;;22.45;64.85